15:34
Airports
History
Links
Donate
Help keep this website running!
PayPal
Bitcoin
This page is community maintained. The information is intended for PC simulator navigation or reference.
Always use approved charts for navigation.
CYCW
Chilliwack
Chilliwack (CYCW)
Chilliwack, British Columbia, Canada
(U)
Lat/Lng:49° 9' 10" N / 121° 56' 20.02" W
49.152778 / -121.938895
Elevation:32'ft / 10mMSL
ID / ICAO:CYCW
Runways:1
Longest:07-25
Asphalt 1,223m / 4,013ft
Nearby Weather15:00 GMT 2018-02-19
Nearby weather at CYXX, Abbotsford located 21.0 nautical miles from CYCW
Altimeter: 30.24
Visibility: 30.0 statute miles
Wind: 12 knots (from 050°)
Temp: -4°c / 25°f
Humidity: 41.9%

METAR: CYXX 191500Z 05012KT 30SM SKC M04/M15 A3024 RMK SLP243

(Powered by phpweather)
Airport Radio Frequencies
CTAF/UNICOM: 122.7
Nearby VORs <50NM
Nearby NDBs
Runway 07 / 25
Dimensions:1223.1 x 22.9m 4013' x 75'ft
Surface:Asphalt
Edge Lights:Medium intensity
Runway 07 [A]Runway 25 [B]
Heading:081°TH 261°TH
Lat:
Lng:
49° 9' 7"N
121° 56' 50"W
49° 9' 13"N
121° 55' 50.04"W
User Notes and Comments
49° 9' 10" N / 121° 56' 20.02" W
Distance To
Airport ID:
Nearby Airports
(R) Kendall Airstrip 18.2 NM
WN08 SSW 205°
(C) Abbotsford 21.0 NM
CYXX ( WX ) WSW 245°
(C) Stave Lake 24.3 NM
SCSL NNW 327°
4 Hope 25.3 NM
CYHE ( WX ) NE 54°
(R) Riverside 26.5 NM
4WA8 SSW 213°
(U) Lynden 27.1 NM
WA33 WSW 239°
(U) Fort Langley 27.7 NM
CBQ2 W 272°
VFR Chart
Flight Planning at SkyVector.com